Time;durP1;ratioP1;P1;durP2;ratioP2;P2;SDS_P1;SDS_P2;PMS_P1;PMS_P2;Temp;Humidity;BMP_temperature;BMP_pressure;BME280_temperature;BME280_humidity;BME280_pressure;Samples;Min_cycle;Max_cycle;Signal;HPM_P1;HPM_P2
2023/07/25 00:02:44;;;;;;;0.13;0.10;;;12.70;99.90;;;;;;5050899;28;20449;-94
2023/07/25 00:05:12;;;;;;;0.35;0.30;;;12.40;99.90;;;;;;5049302;28;20059;-94
2023/07/25 00:07:41;;;;;;;0.45;0.35;;;12.70;99.90;;;;;;5065537;28;20553;-95
2023/07/25 00:10:07;;;;;;;0.32;0.20;;;12.70;99.90;;;;;;5065165;28;20041;-94
2023/07/25 00:12:53;;;;;;;0.30;0.30;;;12.60;99.90;;;;;;5051402;28;20044;-95
2023/07/25 00:15:27;;;;;;;0.20;0.20;;;12.50;99.90;;;;;;5051561;28;20040;-94
2023/07/25 00:18:03;;;;;;;;;;;;;;;;;;;;;
2023/07/25 00:20:31;;;;;;;0.47;0.20;;;12.50;99.90;;;;;;5076837;28;20048;-93
2023/07/25 00:23:13;;;;;;;2.58;0.63;;;12.40;99.90;;;;;;5044189;28;20044;-94
2023/07/25 00:25:48;;;;;;;0.30;0.30;;;12.30;99.90;;;;;;5060720;28;20036;-94
2023/07/25 00:28:18;;;;;;;0.75;0.75;;;12.30;99.90;;;;;;5063284;28;20046;-94
2023/07/25 00:30:44;;;;;;;0.47;0.40;;;12.30;99.90;;;;;;5046181;28;20045;-94
2023/07/25 00:33:13;;;;;;;0.60;0.60;;;12.30;99.90;;;;;;5040490;28;20041;-93
2023/07/25 00:35:41;;;;;;;0.22;0.22;;;12.30;99.90;;;;;;5057789;28;20051;-93
2023/07/25 00:38:15;;;;;;;0.55;0.55;;;12.30;99.90;;;;;;5042130;28;20043;-94
2023/07/25 00:40:43;;;;;;;0.30;0.30;;;12.30;99.90;;;;;;5045096;28;20051;-95
2023/07/25 00:43:12;;;;;;;0.40;0.25;;;12.30;99.90;;;;;;5077005;28;20440;-95
2023/07/25 00:45:43;;;;;;;0.20;0.20;;;12.20;99.90;;;;;;5059239;28;20094;-95
2023/07/25 00:48:16;;;;;;;0.75;0.43;;;11.60;99.90;;;;;;5038526;28;20032;-94
2023/07/25 00:50:42;;;;;;;0.20;0.20;;;11.70;99.90;;;;;;5052203;28;20593;-95
2023/07/25 00:53:12;;;;;;;0.45;0.45;;;12.30;99.90;;;;;;5048667;28;20048;-95
2023/07/25 00:56:03;;;;;;;0.35;0.30;;;12.20;99.90;;;;;;5046185;28;20072;-94
2023/07/25 00:58:29;;;;;;;0.20;0.20;;;12.10;99.90;;;;;;5051728;28;20056;-94
2023/07/25 01:01:22;;;;;;;0.35;0.35;;;12.10;99.90;;;;;;5036249;28;20048;-94
2023/07/25 01:04:17;;;;;;;0.70;0.50;;;12.10;99.90;;;;;;5064939;28;20045;-94
2023/07/25 01:06:41;;;;;;;0.50;0.43;;;12.10;99.90;;;;;;5068972;28;20249;-94
2023/07/25 01:09:12;;;;;;;0.35;0.25;;;12.00;99.90;;;;;;5047546;28;20036;-93
2023/07/25 01:11:42;;;;;;;0.20;0.20;;;12.00;99.90;;;;;;5050608;28;20051;-92
2023/07/25 01:14:08;;;;;;;0.30;0.30;;;12.00;99.90;;;;;;5048884;28;20053;-93
2023/07/25 01:16:45;;;;;;;0.63;0.50;;;12.00;99.90;;;;;;5062877;28;20055;-92
2023/07/25 01:19:35;;;;;;;0.20;0.20;;;12.00;99.90;;;;;;5057410;28;20040;-93
2023/07/25 01:22:04;;;;;;;0.40;0.40;;;12.00;99.90;;;;;;5061602;28;20059;-94
2023/07/25 01:24:30;;;;;;;0.43;0.38;;;12.10;99.90;;;;;;5047956;28;20032;-92
2023/07/25 01:27:16;;;;;;;0.52;0.40;;;12.00;99.90;;;;;;5051236;28;20042;-93
2023/07/25 01:29:47;;;;;;;0.22;0.22;;;12.00;99.90;;;;;;5063324;28;20083;-93
2023/07/25 01:32:13;;;;;;;0.50;0.47;;;12.00;99.90;;;;;;5044733;28;20048;-92
2023/07/25 01:34:44;;;;;;;0.10;0.10;;;11.90;99.90;;;;;;5061493;28;20062;-92
2023/07/25 01:37:12;;;;;;;0.20;0.13;;;11.90;99.90;;;;;;5069300;28;20093;-94
2023/07/25 01:39:43;;;;;;;0.60;0.57;;;12.00;99.90;;;;;;5050184;28;20036;-94
2023/07/25 01:42:16;;;;;;;0.38;0.38;;;11.80;99.90;;;;;;5049303;28;20036;-93
2023/07/25 01:44:50;;;;;;;0.70;0.38;;;11.10;99.90;;;;;;5040279;28;20037;-93
2023/07/25 01:47:25;;;;;;;0.28;0.28;;;11.80;99.90;;;;;;5043683;28;20409;-93
2023/07/25 01:49:58;;;;;;;0.40;0.30;;;11.80;99.90;;;;;;5065584;28;20441;-93
2023/07/25 01:52:29;;;;;;;0.63;0.43;;;11.80;99.90;;;;;;5055464;28;20184;-94
2023/07/25 01:54:57;;;;;;;0.30;0.30;;;11.80;99.90;;;;;;5039002;28;20063;-94
2023/07/25 01:57:26;;;;;;;0.30;0.30;;;11.80;99.90;;;;;;5067956;28;20402;-95
2023/07/25 02:00:09;;;;;;;0.20;0.20;;;11.80;99.90;;;;;;5063350;28;20048;-93
2023/07/25 02:02:37;;;;;;;0.40;0.40;;;11.80;99.90;;;;;;5043738;28;20371;-95
2023/07/25 02:05:05;;;;;;;0.50;0.50;;;11.80;99.90;;;;;;5063875;28;20127;-93
2023/07/25 02:10:32;;;;;;;0.25;0.25;;;11.80;99.90;;;;;;5066841;28;20036;-93
2023/07/25 02:13:00;;;;;;;0.20;0.20;;;11.80;99.90;;;;;;5066833;28;20044;-93
2023/07/25 02:15:36;;;;;;;;;;;;;;;;;;;;;
2023/07/25 02:18:05;;;;;;;0.55;0.55;;;11.90;99.90;;;;;;5047754;28;20048;-93
2023/07/25 02:20:38;;;;;;;0.47;0.47;;;11.80;99.90;;;;;;5049177;28;20414;-92
2023/07/25 02:23:06;;;;;;;0.20;0.20;;;11.90;99.90;;;;;;5044051;28;20048;-93
2023/07/25 02:25:52;;;;;;;0.20;0.20;;;11.90;99.90;;;;;;5071454;28;20032;-94
2023/07/25 02:28:18;;;;;;;0.77;0.28;;;11.90;99.90;;;;;;5038890;28;20126;-94
2023/07/25 02:31:05;;;;;;;0.30;0.30;;;11.90;99.90;;;;;;5047833;28;20131;-93
2023/07/25 02:33:34;;;;;;;0.40;0.30;;;11.80;99.90;;;;;;5050722;28;20052;-94
2023/07/25 02:36:07;;;;;;;0.15;0.15;;;12.40;99.90;;;;;;5055420;28;20393;-93
2023/07/25 02:38:36;;;;;;;0.13;0.13;;;11.00;99.90;;;;;;5045072;28;20098;-92
2023/07/25 02:41:07;;;;;;;0.30;0.30;;;11.90;99.90;;;;;;5042409;28;20055;-93
2023/07/25 02:43:37;;;;;;;0.40;0.40;;;11.50;99.90;;;;;;5047079;28;20109;-93
2023/07/25 02:46:16;;;;;;;;;;;;;;;;;;;;;
2023/07/25 02:48:54;;;;;;;0.20;0.20;;;12.00;99.90;;;;;;5071642;28;20048;-94
2023/07/25 02:51:28;;;;;;;0.22;0.22;;;11.90;99.90;;;;;;5059308;28;20560;-93
2023/07/25 02:53:59;;;;;;;0.40;0.40;;;11.90;99.90;;;;;;5067172;28;20071;-94
2023/07/25 02:56:36;;;;;;;;;;;;;;;;;;;;;
2023/07/25 02:59:05;;;;;;;0.32;0.32;;;12.00;99.90;;;;;;5073042;28;20076;-94
2023/07/25 03:01:30;;;;;;;0.10;0.10;;;12.30;99.90;;;;;;5049906;28;20558;-94
2023/07/25 03:03:56;;;;;;;0.47;0.47;;;11.10;99.90;;;;;;5070533;28;20075;-94
2023/07/25 03:06:24;;;;;;;0.47;0.30;;;11.90;99.90;;;;;;5082651;28;20111;-94
2023/07/25 03:08:52;;;;;;;0.20;0.20;;;12.00;99.90;;;;;;5050540;28;20294;-94
2023/07/25 03:11:21;;;;;;;0.22;0.22;;;11.90;99.90;;;;;;5066833;28;20090;-93
2023/07/25 03:13:52;;;;;;;0.20;0.20;;;11.60;99.90;;;;;;5070017;28;20127;-94
2023/07/25 03:16:23;;;;;;;0.70;0.38;;;11.80;99.90;;;;;;5043387;28;20058;-94
2023/07/25 03:18:52;;;;;;;0.30;0.30;;;12.60;99.90;;;;;;5068725;28;20040;-95
2023/07/25 03:21:23;;;;;;;0.10;0.10;;;11.90;99.90;;;;;;5078742;28;20455;-92
2023/07/25 03:23:48;;;;;;;0.40;0.40;;;11.50;99.90;;;;;;5074257;28;20052;-94
2023/07/25 03:26:25;;;;;;;2.15;0.30;;;11.90;99.90;;;;;;5042371;28;20083;-94
2023/07/25 03:29:01;;;;;;;0.25;0.20;;;11.90;99.90;;;;;;5054149;28;20068;-94
2023/07/25 03:31:40;;;;;;;;;;;;;;;;;;;;;
2023/07/25 03:34:18;;;;;;;0.35;0.32;;;11.80;99.90;;;;;;5078736;28;20052;-94
2023/07/25 03:36:44;;;;;;;0.30;0.30;;;11.90;99.90;;;;;;5046321;28;20047;-96
2023/07/25 03:39:13;;;;;;;0.35;0.35;;;12.00;99.90;;;;;;5077329;28;20052;-95
2023/07/25 03:41:44;;;;;;;0.80;0.45;;;12.00;99.90;;;;;;5028396;28;20044;-95
2023/07/25 03:44:39;;;;;;;0.20;0.20;;;12.10;99.90;;;;;;5078628;28;20479;-94
2023/07/25 03:47:18;;;;;;;;;;;;;;;;;;;;;
2023/07/25 03:49:56;;;;;;;1.15;0.40;;;12.00;99.90;;;;;;5056263;28;20052;-96
2023/07/25 03:52:27;;;;;;;0.70;0.50;;;12.10;99.90;;;;;;5045927;28;20051;-95
2023/07/25 03:55:01;;;;;;;0.50;0.50;;;12.10;99.90;;;;;;5051137;28;20051;-95
2023/07/25 03:57:34;;;;;;;0.45;0.20;;;12.10;99.90;;;;;;5039828;28;20044;-95
2023/07/25 04:00:00;;;;;;;0.30;0.30;;;12.10;99.90;;;;;;5041449;28;20063;-96
2023/07/25 04:02:28;;;;;;;0.50;0.22;;;12.10;99.90;;;;;;5064133;28;20048;-94
2023/07/25 04:04:54;;;;;;;0.95;0.35;;;12.10;99.90;;;;;;5067161;28;20032;-95
2023/07/25 04:07:38;;;;;;;;;;;;;;;;;;;;;
2023/07/25 04:10:26;;;;;;;0.50;0.50;;;12.30;99.90;;;;;;5055895;28;20108;-95
2023/07/25 04:12:57;;;;;;;0.55;0.38;;;11.70;99.90;;;;;;5056402;28;20143;-95
2023/07/25 04:15:34;;;;;;;0.22;0.20;;;12.20;99.90;;;;;;5042110;28;20044;-95
2023/07/25 04:18:04;;;;;;;0.57;0.30;;;12.20;99.90;;;;;;5063324;28;20044;-94
2023/07/25 04:20:39;;;;;;;0.30;0.30;;;12.30;99.90;;;;;;5039747;28;20367;-94
2023/07/25 04:23:21;;;;;;;0.13;0.13;;;12.30;99.90;;;;;;5041090;28;20525;-96
2023/07/25 04:25:56;;;;;;;0.15;0.15;;;12.30;99.90;;;;;;5040864;28;20044;-94
2023/07/25 04:28:34;;;;;;;;;;;;;;;;;;;;;
2023/07/25 04:31:16;;;;;;;;;;;;;;;;;;;;;
2023/07/25 04:33:44;;;;;;;0.20;0.20;;;12.30;99.90;;;;;;5075926;28;20532;-95
2023/07/25 04:36:15;;;;;;;0.13;0.13;;;12.30;99.90;;;;;;5040655;28;20078;-95
2023/07/25 04:38:48;;;;;;;0.08;0.08;;;12.30;99.90;;;;;;5024031;28;20051;-95
2023/07/25 04:41:18;;;;;;;0.20;0.20;;;12.30;99.90;;;;;;5018941;28;20099;-95
2023/07/25 04:43:49;;;;;;;0.32;0.32;;;11.60;99.90;;;;;;5044689;28;20043;-95
2023/07/25 04:46:25;;;;;;;0.20;0.20;;;12.30;99.90;;;;;;5059864;28;20074;-94
2023/07/25 04:48:55;;;;;;;0.50;0.30;;;12.20;99.90;;;;;;5044195;28;20052;-94
2023/07/25 04:51:37;;;;;;;0.32;0.28;;;12.30;99.90;;;;;;5057047;28;20478;-96
2023/07/25 04:54:08;;;;;;;0.20;0.20;;;12.40;99.90;;;;;;5045072;28;20076;-95
2023/07/25 04:56:44;;;;;;;;;;;;;;;;;;;;;
2023/07/25 04:59:31;;;;;;;0.30;0.20;;;11.90;99.90;;;;;;5060678;28;20048;-95
2023/07/25 05:02:05;;;;;;;0.30;0.30;;;12.30;99.90;;;;;;5047633;28;20083;-95
2023/07/25 05:04:35;;;;;;;0.47;0.47;;;11.60;99.90;;;;;;5055615;28;20052;-95
2023/07/25 05:07:11;;;;;;;0.75;0.30;;;12.40;99.90;;;;;;5064473;28;20051;-94
2023/07/25 05:12:38;;;;;;;0.28;0.22;;;12.40;99.90;;;;;;5049254;28;20087;-94
2023/07/25 05:15:21;;;;;;;1.33;0.50;;;12.70;99.90;;;;;;5043340;28;20075;-95
2023/07/25 05:18:07;;;;;;;0.52;0.52;;;13.10;99.90;;;;;;5044601;28;20048;-95
2023/07/25 05:20:33;;;;;;;0.57;0.30;;;12.40;99.90;;;;;;5064246;28;20048;-95
2023/07/25 05:23:04;;;;;;;0.25;0.20;;;12.40;99.90;;;;;;5051101;28;20048;-95
2023/07/25 05:25:32;;;;;;;0.28;0.20;;;12.50;99.90;;;;;;5065195;28;20086;-95
2023/07/25 05:28:03;;;;;;;0.28;0.28;;;11.80;99.90;;;;;;5050686;28;20127;-95
2023/07/25 05:30:39;;;;;;;;;;;;;;;;;;;;;
2023/07/25 05:33:08;;;;;;;0.13;0.13;;;12.60;99.90;;;;;;5071077;28;20048;-95
2023/07/25 05:35:34;;;;;;;0.38;0.38;;;12.70;99.90;;;;;;5038626;28;20068;-95
2023/07/25 05:38:10;;;;;;;0.82;0.82;;;12.90;99.90;;;;;;5064333;28;20122;-94
2023/07/25 05:40:54;;;;;;;;;;;;;;;;;;;;;
2023/07/25 05:43:27;;;;;;;0.17;0.17;;;13.10;99.90;;;;;;5065545;28;20044;-94
2023/07/25 05:46:13;;;;;;;0.13;0.13;;;13.20;99.90;;;;;;5048846;28;20029;-94
2023/07/25 05:48:41;;;;;;;0.20;0.20;;;13.20;99.90;;;;;;5047674;28;20047;-95
2023/07/25 05:51:14;;;;;;;0.13;0.13;;;12.20;99.90;;;;;;5035192;28;20045;-95
2023/07/25 05:53:49;;;;;;;0.35;0.25;;;13.20;99.90;;;;;;5025186;28;20048;-95
2023/07/25 05:59:14;;;;;;;0.13;0.13;;;13.50;99.90;;;;;;5005956;28;20040;-92
2023/07/25 06:01:39;;;;;;;0.00;0.00;;;13.70;99.90;;;;;;5022592;28;20037;-91
2023/07/25 06:04:13;;;;;;;0.30;0.20;;;14.00;99.90;;;;;;5039897;28;20041;-91
2023/07/25 06:06:39;;;;;;;0.13;0.13;;;14.20;99.90;;;;;;5031906;28;20502;-92
2023/07/25 06:09:11;;;;;;;0.13;0.13;;;14.30;99.90;;;;;;5043339;28;20762;-92
2023/07/25 06:11:39;;;;;;;0.28;0.28;;;14.60;99.90;;;;;;5029424;28;20048;-95
2023/07/25 06:14:05;;;;;;;0.10;0.10;;;14.80;99.90;;;;;;5028831;28;20037;-94
2023/07/25 06:16:33;;;;;;;0.20;0.20;;;15.10;99.90;;;;;;5054170;28;20051;-90
2023/07/25 06:18:59;;;;;;;0.65;0.35;;;15.10;99.90;;;;;;5037890;28;20050;-91
2023/07/25 06:21:27;;;;;;;0.10;0.10;;;15.50;99.90;;;;;;5049444;28;20040;-94
2023/07/25 06:23:53;;;;;;;0.17;0.17;;;15.60;99.90;;;;;;5072532;28;20041;-90
2023/07/25 06:26:21;;;;;;;0.30;0.30;;;15.10;99.90;;;;;;5038903;28;20391;-87
2023/07/25 06:28:47;;;;;;;0.22;0.20;;;15.50;99.90;;;;;;5038463;28;20402;-88
2023/07/25 06:31:13;;;;;;;0.60;0.10;;;16.00;99.90;;;;;;5058221;28;20037;-93
2023/07/25 06:33:41;;;;;;;0.17;0.17;;;16.10;99.90;;;;;;5037637;28;20298;-93
2023/07/25 06:36:14;;;;;;;0.20;0.10;;;16.00;99.90;;;;;;5021980;28;20059;-91
2023/07/25 06:38:40;;;;;;;0.13;0.13;;;15.90;99.90;;;;;;5044187;28;20475;-93
2023/07/25 06:41:11;;;;;;;1.17;0.22;;;15.90;99.90;;;;;;5043401;28;20048;-92
2023/07/25 06:43:39;;;;;;;0.45;0.35;;;15.80;99.90;;;;;;5038251;28;20114;-91
2023/07/25 06:46:04;;;;;;;0.35;0.30;;;15.80;99.90;;;;;;5030196;28;20056;-92
2023/07/25 06:48:30;;;;;;;0.03;0.03;;;15.80;99.90;;;;;;5038351;28;20060;-91
2023/07/25 06:50:56;;;;;;;0.10;0.10;;;15.90;99.90;;;;;;5024923;28;20048;-96
2023/07/25 06:53:22;;;;;;;0.10;0.10;;;15.90;99.90;;;;;;5033677;28;20048;-90
2023/07/25 06:55:53;;;;;;;0.10;0.10;;;15.90;99.90;;;;;;5016445;28;20083;-91
2023/07/25 06:58:21;;;;;;;0.10;0.10;;;16.00;99.90;;;;;;5044207;28;20469;-93
2023/07/25 07:01:00;;;;;;;0.10;0.10;;;16.00;99.90;;;;;;5048209;28;20394;-90
2023/07/25 07:03:28;;;;;;;0.10;0.10;;;16.20;99.90;;;;;;5044977;28;20044;-94
2023/07/25 07:05:54;;;;;;;0.15;0.15;;;16.20;99.90;;;;;;5056908;28;20032;-96
2023/07/25 07:08:30;;;;;;;0.05;0.05;;;16.10;99.90;;;;;;5029713;28;20434;-91
2023/07/25 07:10:56;;;;;;;0.13;0.13;;;16.10;99.90;;;;;;5030498;28;20075;-90
2023/07/25 07:13:25;;;;;;;0.00;0.00;;;16.10;99.90;;;;;;5029257;28;20096;-90
2023/07/25 07:15:51;;;;;;;0.10;0.08;;;16.00;99.90;;;;;;5039899;28;20106;-87
2023/07/25 07:18:17;;;;;;;0.28;0.17;;;16.10;99.90;;;;;;5049747;28;20041;-88
2023/07/25 07:20:48;;;;;;;0.00;0.00;;;16.30;99.90;;;;;;5041432;28;20047;-93
2023/07/25 07:23:16;;;;;;;0.10;0.10;;;16.30;99.90;;;;;;5050952;28;20478;-89
2023/07/25 07:25:52;;;;;;;0.52;0.08;;;16.40;99.90;;;;;;5034856;28;20380;-88
2023/07/25 07:28:30;;;;;;;0.30;0.10;;;16.50;99.90;;;;;;5046490;28;20044;-88
2023/07/25 07:30:56;;;;;;;0.10;0.10;;;16.60;99.90;;;;;;5021879;28;20148;-95
2023/07/25 07:33:24;;;;;;;0.35;0.10;;;16.70;99.90;;;;;;5048149;28;20131;-86
2023/07/25 07:35:52;;;;;;;0.00;0.00;;;16.70;99.90;;;;;;5047265;28;20076;-88
2023/07/25 07:38:18;;;;;;;0.03;0.03;;;16.90;99.90;;;;;;5046812;28;20044;-89
2023/07/25 07:41:00;;;;;;;0.00;0.00;;;17.00;99.90;;;;;;5054604;28;20084;-93
2023/07/25 07:43:56;;;;;;;0.00;0.00;;;16.30;99.90;;;;;;5078010;28;20055;-88
2023/07/25 07:46:31;;;;;;;0.00;0.00;;;17.10;99.90;;;;;;5057433;28;20044;-90
2023/07/25 07:48:59;;;;;;;0.15;0.03;;;17.10;99.90;;;;;;5051326;28;20135;-89
2023/07/25 07:51:28;;;;;;;0.00;0.00;;;17.10;99.90;;;;;;5022686;28;20064;-88
2023/07/25 07:53:54;;;;;;;0.10;0.10;;;17.20;99.90;;;;;;5053714;28;20052;-87
2023/07/25 07:56:22;;;;;;;0.00;0.00;;;17.20;99.90;;;;;;5051102;28;20037;-87
2023/07/25 07:58:48;;;;;;;0.00;0.00;;;17.20;99.90;;;;;;5023593;28;20052;-87
2023/07/25 08:01:25;;;;;;;0.10;0.10;;;17.30;99.90;;;;;;5032911;28;20052;-89
2023/07/25 08:03:51;;;;;;;0.10;0.10;;;17.90;99.90;;;;;;5056813;28;20133;-90
2023/07/25 08:06:22;;;;;;;0.00;0.00;;;17.40;99.90;;;;;;5028518;28;20076;-91
2023/07/25 08:09:06;;;;;;;;;;;;;;;;;;;;;
2023/07/25 08:11:40;;;;;;;0.00;0.00;;;16.60;99.90;;;;;;5038542;28;20415;-91
2023/07/25 08:17:22;;;;;;;0.00;0.00;;;17.50;99.90;;;;;;5061677;28;20053;-90
2023/07/25 08:19:51;;;;;;;0.22;0.10;;;17.50;99.90;;;;;;5049719;28;20052;-91
2023/07/25 08:22:19;;;;;;;0.00;0.00;;;17.60;99.90;;;;;;5048240;28;20087;-88
2023/07/25 08:25:01;;;;;;;0.00;0.00;;;17.40;99.90;;;;;;5027365;28;20043;-89
2023/07/25 08:27:39;;;;;;;0.00;0.00;;;17.30;99.90;;;;;;5066476;28;20513;-90
2023/07/25 08:30:08;;;;;;;0.00;0.00;;;17.40;99.90;;;;;;5045987;28;20131;-88
2023/07/25 08:32:45;;;;;;;0.03;0.03;;;17.40;99.90;;;;;;5069246;28;20052;-90
2023/07/25 08:35:21;;;;;;;0.00;0.00;;;17.50;99.90;;;;;;5050524;28;20040;-89
2023/07/25 08:38:05;;;;;;;;;;;;;;;;;;;;;
2023/07/25 08:40:40;;;;;;;0.15;0.15;;;17.60;99.90;;;;;;5070223;28;20047;-88
2023/07/25 08:43:24;;;;;;;0.00;0.00;;;16.80;99.90;;;;;;5051890;28;20564;-88
2023/07/25 08:45:51;;;;;;;0.00;0.00;;;17.50;99.90;;;;;;5031231;28;20037;-90
2023/07/25 08:48:25;;;;;;;0.00;0.00;;;17.60;99.90;;;;;;5066768;28;20569;-88
2023/07/25 08:51:03;;;;;;;0.00;0.00;;;17.60;99.90;;;;;;5055621;28;20657;-91
2023/07/25 08:53:40;;;;;;;0.10;0.10;;;17.80;99.90;;;;;;5069390;28;20044;-88
2023/07/25 08:56:10;;;;;;;0.00;0.00;;;18.00;99.90;;;;;;5082954;28;20442;-90
2023/07/25 08:58:43;;;;;;;0.00;0.00;;;18.10;99.90;;;;;;5077055;28;20098;-89
2023/07/25 09:01:14;;;;;;;0.00;0.00;;;18.00;99.90;;;;;;5065729;28;20075;-88
2023/07/25 09:03:45;;;;;;;0.10;0.10;;;17.90;99.90;;;;;;5083543;28;20442;-87
2023/07/25 09:06:15;;;;;;;0.00;0.00;;;17.70;99.90;;;;;;5060190;28;20048;-90
2023/07/25 09:08:43;;;;;;;;;;;17.50;99.90;;;;;;5061757;28;20453;-89
2023/07/25 09:11:13;;;;;;;0.10;0.10;;;16.80;99.90;;;;;;5054754;28;20628;-89
2023/07/25 09:13:50;;;;;;;0.00;0.00;;;17.70;99.90;;;;;;5079561;28;20048;-91
2023/07/25 09:16:18;;;;;;;0.00;0.00;;;17.90;99.90;;;;;;5062966;28;20070;-90
2023/07/25 09:18:49;;;;;;;0.10;0.10;;;18.00;99.90;;;;;;5062962;28;20043;-89
2023/07/25 09:21:15;;;;;;;0.10;0.10;;;18.20;99.90;;;;;;5055780;28;20052;-87
2023/07/25 09:23:51;;;;;;;0.17;0.17;;;18.20;99.90;;;;;;5074198;28;20061;-93
2023/07/25 09:26:33;;;;;;;0.10;0.10;;;18.30;99.90;;;;;;5079892;28;20398;-91
2023/07/25 09:29:07;;;;;;;0.08;0.08;;;18.40;99.90;;;;;;5058381;28;20075;-90
2023/07/25 09:31:43;;;;;;;0.00;0.00;;;18.40;99.90;;;;;;5074918;28;20486;-89
2023/07/25 09:34:20;;;;;;;0.00;0.00;;;18.40;99.90;;;;;;5063110;28;20040;-88
2023/07/25 09:36:49;;;;;;;0.32;0.00;;;18.30;99.90;;;;;;5074289;28;20174;-91
2023/07/25 09:39:23;;;;;;;0.00;0.00;;;18.40;99.90;;;;;;5089450;28;20055;-94
2023/07/25 09:42:00;;;;;;;;;;;;;;;;;;;;;
2023/07/25 09:44:39;;;;;;;0.00;0.00;;;18.50;99.90;;;;;;5073064;28;20048;-90
2023/07/25 09:47:17;;;;;;;;;;;;;;;;;;;;;
2023/07/25 09:49:56;;;;;;;0.17;0.17;;;18.60;99.90;;;;;;5072255;28;20048;-90
2023/07/25 09:52:23;;;;;;;0.00;0.00;;;18.60;99.90;;;;;;5054381;28;20060;-91
2023/07/25 09:55:02;;;;;;;0.45;0.20;;;18.00;99.90;;;;;;5055762;28;20055;-91
2023/07/25 09:57:28;;;;;;;0.10;0.10;;;18.70;99.90;;;;;;5055289;28;20063;-90
2023/07/25 10:00:03;;;;;;;0.10;0.10;;;18.70;99.90;;;;;;5072190;28;20126;-91
2023/07/25 10:02:31;;;;;;;0.10;0.00;;;18.80;99.90;;;;;;5055639;28;20079;-89
2023/07/25 10:05:02;;;;;;;0.47;0.10;;;18.90;99.90;;;;;;5043316;28;20552;-90
2023/07/25 10:07:32;;;;;;;0.10;0.10;;;18.90;99.90;;;;;;5074953;28;20048;-91
2023/07/25 10:10:05;;;;;;;0.10;0.10;;;18.80;99.90;;;;;;5076073;28;20036;-91
2023/07/25 10:12:31;;;;;;;0.00;0.00;;;18.80;99.90;;;;;;5058754;28;20105;-91
2023/07/25 10:14:57;;;;;;;0.20;0.08;;;18.80;99.90;;;;;;5091967;28;20044;-90
2023/07/25 10:17:36;;;;;;;0.82;0.10;;;18.80;99.90;;;;;;5091476;28;20048;-92
2023/07/25 10:20:05;;;;;;;0.22;0.10;;;18.80;99.90;;;;;;5059643;28;20056;-90
2023/07/25 10:22:46;;;;;;;0.10;0.10;;;18.60;99.90;;;;;;5054614;28;20080;-90
2023/07/25 10:25:20;;;;;;;0.00;0.00;;;18.20;99.90;;;;;;5039038;28;20048;-90
2023/07/25 10:27:49;;;;;;;0.32;0.32;;;18.50;99.90;;;;;;5055024;28;20040;-91
2023/07/25 10:30:45;;;;;;;0.20;0.20;;;18.50;99.90;;;;;;5054298;28;20053;-91
2023/07/25 10:33:23;;;;;;;0.32;0.10;;;18.60;99.90;;;;;;5057507;28;20174;-91
2023/07/25 10:36:01;;;;;;;0.10;0.10;;;18.60;99.90;;;;;;5088033;28;20036;-90
2023/07/25 10:38:38;;;;;;;0.10;0.10;;;18.60;99.90;;;;;;5054543;28;20044;-91
2023/07/25 10:41:08;;;;;;;0.10;0.10;;;17.80;99.90;;;;;;5055594;28;20051;-90
2023/07/25 10:44:05;;;;;;;0.00;0.00;;;18.40;99.90;;;;;;5055106;28;20072;-91
2023/07/25 10:46:34;;;;;;;0.00;0.00;;;18.50;99.90;;;;;;5049210;28;20048;-89
2023/07/25 10:49:03;;;;;;;0.08;0.08;;;18.50;99.90;;;;;;5075320;28;20032;-89
2023/07/25 10:51:53;;;;;;;0.10;0.08;;;18.60;99.90;;;;;;5057745;28;20048;-90
2023/07/25 10:54:23;;;;;;;0.03;0.03;;;18.50;99.90;;;;;;5058409;28;20048;-90
2023/07/25 10:57:24;;;;;;;0.13;0.10;;;18.10;99.90;;;;;;5075704;28;20083;-90
2023/07/25 11:00:17;;;;;;;0.10;0.10;;;18.90;99.90;;;;;;5060745;28;20060;-89
2023/07/25 11:02:54;;;;;;;0.05;0.05;;;18.90;99.90;;;;;;5058786;28;20036;-89
2023/07/25 11:05:21;;;;;;;0.00;0.00;;;18.00;99.90;;;;;;5058021;28;20127;-89
2023/07/25 11:07:56;;;;;;;0.10;0.10;;;18.70;99.90;;;;;;5075290;28;20052;-90
2023/07/25 11:10:38;;;;;;;;;;;;;;;;;;;;;
2023/07/25 11:13:17;;;;;;;0.05;0.05;;;18.60;99.90;;;;;;5075272;28;20040;-89
2023/07/25 11:16:09;;;;;;;0.10;0.10;;;18.80;99.90;;;;;;5074772;28;20075;-89
2023/07/25 11:18:54;;;;;;;0.00;0.00;;;19.00;99.90;;;;;;5074506;28;20135;-90
2023/07/25 11:21:25;;;;;;;0.00;0.00;;;19.10;99.90;;;;;;5057973;28;20059;-89
2023/07/25 11:24:14;;;;;;;0.00;0.00;;;19.00;99.90;;;;;;5042701;28;20486;-89
2023/07/25 11:26:47;;;;;;;0.10;0.10;;;19.30;99.90;;;;;;5057764;28;20040;-89
2023/07/25 11:29:27;;;;;;;;;;;;;;;;;;;;;
2023/07/25 11:32:01;;;;;;;0.00;0.00;;;19.40;99.90;;;;;;5074920;28;20044;-89
2023/07/25 11:34:29;;;;;;;0.00;0.00;;;19.40;99.90;;;;;;5042501;28;20079;-89
2023/07/25 11:36:58;;;;;;;0.35;0.20;;;18.70;99.90;;;;;;5057434;28;20076;-89
2023/07/25 11:39:37;;;;;;;0.15;0.00;;;19.40;99.90;;;;;;5040785;28;20100;-89
2023/07/25 11:42:11;;;;;;;0.10;0.10;;;18.50;99.90;;;;;;5029206;28;20044;-89
2023/07/25 11:44:52;;;;;;;;;;;;;;;;;;;;;
2023/07/25 11:47:25;;;;;;;0.00;0.00;;;19.00;99.90;;;;;;5059755;28;20048;-93
2023/07/25 11:49:51;;;;;;;0.20;0.10;;;18.90;99.90;;;;;;5058382;28;20044;-89
2023/07/25 11:52:17;;;;;;;0.35;0.10;;;18.90;99.90;;;;;;5057686;28;20064;-90
2023/07/25 11:54:50;;;;;;;0.25;0.25;;;19.00;99.90;;;;;;5057507;28;20055;-89
2023/07/25 11:57:19;;;;;;;0.10;0.10;;;18.10;99.90;;;;;;5040090;28;20099;-90
2023/07/25 11:59:47;;;;;;;0.10;0.10;;;18.90;99.90;;;;;;5057551;28;20121;-89
2023/07/25 12:02:33;;;;;;;0.10;0.10;;;18.90;99.90;;;;;;5041424;28;20483;-89
2023/07/25 12:05:08;;;;;;;0.00;0.00;;;18.80;99.90;;;;;;5057709;28;20040;-89
2023/07/25 12:08:00;;;;;;;0.00;0.00;;;18.90;99.90;;;;;;5086756;28;20440;-89
2023/07/25 12:10:59;;;;;;;;;;;;;;;;;;;;;
2023/07/25 12:13:28;;;;;;;0.00;0.00;;;19.60;99.90;;;;;;5094929;28;20058;-89
2023/07/25 12:15:57;;;;;;;0.15;0.13;;;18.80;99.90;;;;;;5066777;28;20036;-89
2023/07/25 12:18:34;;;;;;;0.00;0.00;;;18.60;99.90;;;;;;5063477;28;20479;-90
2023/07/25 12:21:25;;;;;;;0.20;0.13;;;18.70;99.90;;;;;;5077291;28;20039;-89
2023/07/25 12:23:58;;;;;;;0.43;0.22;;;18.20;99.90;;;;;;5062155;28;20105;-89
2023/07/25 12:26:29;;;;;;;0.10;0.10;;;19.40;99.90;;;;;;5076271;28;20497;-90
2023/07/25 12:29:06;;;;;;;0.00;0.00;;;19.30;99.90;;;;;;5076928;28;20101;-89
2023/07/25 12:31:42;;;;;;;0.03;0.03;;;19.50;99.90;;;;;;5093654;28;20044;-89
2023/07/25 12:34:20;;;;;;;0.03;0.00;;;19.70;99.90;;;;;;5061505;28;20079;-89
2023/07/25 12:37:00;;;;;;;0.08;0.08;;;20.00;99.90;;;;;;5076257;28;20044;-89
2023/07/25 12:39:30;;;;;;;0.10;0.10;;;20.00;99.90;;;;;;5076465;28;20052;-90
2023/07/25 12:42:04;;;;;;;0.08;0.08;;;19.90;99.90;;;;;;5060580;28;20040;-89
2023/07/25 12:44:37;;;;;;;0.38;0.15;;;19.70;99.90;;;;;;5076330;28;20040;-90
2023/07/25 12:47:10;;;;;;;0.10;0.10;;;19.80;99.90;;;;;;5077030;28;20135;-90
2023/07/25 12:49:42;;;;;;;0.00;0.00;;;20.40;99.90;;;;;;5093187;28;20044;-89
2023/07/25 12:52:16;;;;;;;0.32;0.00;;;19.60;99.90;;;;;;5075960;28;20101;-90
2023/07/25 12:54:42;;;;;;;0.57;0.22;;;18.60;99.90;;;;;;5060117;28;20445;-89
2023/07/25 12:57:32;;;;;;;;;;;;;;;;;;;;;
2023/07/25 13:00:16;;;;;;;0.00;0.00;;;19.40;99.90;;;;;;5075393;28;20062;-88
2023/07/25 13:02:43;;;;;;;0.00;0.00;;;19.30;99.90;;;;;;5054363;28;20047;-92
2023/07/25 13:05:15;;;;;;;0.00;0.00;;;19.20;99.90;;;;;;5075978;28;20036;-90
2023/07/25 13:07:41;;;;;;;0.00;0.00;;;19.10;99.90;;;;;;5063703;28;20482;-86
2023/07/25 13:10:10;;;;;;;0.47;0.00;;;19.10;99.90;;;;;;5050530;28;20047;-88
2023/07/25 13:12:39;;;;;;;0.00;0.00;;;18.90;99.90;;;;;;5079248;28;20037;-89
2023/07/25 13:15:10;;;;;;;1.20;0.10;;;18.70;99.90;;;;;;5067806;28;20109;-91
2023/07/25 13:17:56;;;;;;;;;;;;;;;;;;;;;
2023/07/25 13:20:36;;;;;;;0.00;0.00;;;18.40;99.90;;;;;;5067331;28;20071;-89
2023/07/25 13:23:19;;;;;;;;;;;;;;;;;;;;;
2023/07/25 13:25:48;;;;;;;0.17;0.17;;;17.30;99.90;;;;;;5084368;28;20062;-87
2023/07/25 13:28:19;;;;;;;0.20;0.20;;;17.00;99.90;;;;;;5081072;28;20040;-87
2023/07/25 13:30:45;;;;;;;0.10;0.10;;;17.80;99.90;;;;;;5073947;28;20048;-88
2023/07/25 13:33:14;;;;;;;0.22;0.08;;;17.70;99.90;;;;;;5081569;28;20090;-89
2023/07/25 13:35:39;;;;;;;0.15;0.15;;;17.60;99.90;;;;;;5078115;28;20040;-86
2023/07/25 13:38:06;;;;;;;0.10;0.10;;;17.50;99.90;;;;;;5075193;28;20043;-87
2023/07/25 13:40:32;;;;;;;0.10;0.10;;;17.50;99.90;;;;;;5061437;28;20079;-91
2023/07/25 13:42:58;;;;;;;0.55;0.15;;;17.20;99.90;;;;;;5074701;28;20071;-86
2023/07/25 13:45:33;;;;;;;0.00;0.00;;;17.30;99.90;;;;;;5068661;28;20490;-87
2023/07/25 13:48:00;;;;;;;0.10;0.10;;;17.20;99.90;;;;;;5061640;28;20051;-88
2023/07/25 13:50:26;;;;;;;0.77;0.20;;;17.20;99.90;;;;;;5076269;28;20070;-87
2023/07/25 13:52:55;;;;;;;0.00;0.00;;;17.40;99.90;;;;;;5077606;28;20052;-88
2023/07/25 13:55:20;;;;;;;0.10;0.10;;;17.50;99.90;;;;;;5056458;28;20126;-87
2023/07/25 13:57:49;;;;;;;0.00;0.00;;;17.60;99.90;;;;;;5072863;28;20464;-86